sensor_id;sensor_type;location;lat;lon;timestamp;pressure;altitude;pressure_sealevel;temperature;humidity
7264;BME280;3673;52.480;13.348;2023-03-22T00:00:23;100769.69;;;16.15;61.60
7264;BME280;3673;52.480;13.348;2023-03-22T00:02:52;100769.81;;;16.11;61.80
7264;BME280;3673;52.480;13.348;2023-03-22T00:05:20;100760.22;;;16.07;61.77
7264;BME280;3673;52.480;13.348;2023-03-22T00:07:47;100762.97;;;16.02;61.96
7264;BME280;3673;52.480;13.348;2023-03-22T00:10:15;100754.91;;;16.08;61.51
7264;BME280;3673;52.480;13.348;2023-03-22T00:12:42;100757.34;;;16.17;60.94
7264;BME280;3673;52.480;13.348;2023-03-22T00:15:10;100761.59;;;16.23;61.06
7264;BME280;3673;52.480;13.348;2023-03-22T00:17:36;100753.63;;;15.87;61.89
7264;BME280;3673;52.480;13.348;2023-03-22T00:20:04;100755.16;;;15.98;61.97
7264;BME280;3673;52.480;13.348;2023-03-22T00:22:33;100759.97;;;16.17;61.22
7264;BME280;3673;52.480;13.348;2023-03-22T00:25:00;100762.56;;;16.19;60.92
7264;BME280;3673;52.480;13.348;2023-03-22T00:27:26;100756.72;;;16.06;61.79
7264;BME280;3673;52.480;13.348;2023-03-22T00:29:53;100747.19;;;16.01;61.96
7264;BME280;3673;52.480;13.348;2023-03-22T00:32:20;100744.72;;;16.30;60.80
7264;BME280;3673;52.480;13.348;2023-03-22T00:34:47;100741.78;;;16.05;61.23
7264;BME280;3673;52.480;13.348;2023-03-22T00:37:14;100737.09;;;15.81;62.49
7264;BME280;3673;52.480;13.348;2023-03-22T00:39:44;100743.47;;;15.71;62.64
7264;BME280;3673;52.480;13.348;2023-03-22T00:42:10;100730.94;;;15.80;62.42
7264;BME280;3673;52.480;13.348;2023-03-22T00:44:37;100733.03;;;16.03;61.63
7264;BME280;3673;52.480;13.348;2023-03-22T00:47:04;100731.22;;;15.67;62.44
7264;BME280;3673;52.480;13.348;2023-03-22T00:49:31;100733.72;;;15.73;62.43
7264;BME280;3673;52.480;13.348;2023-03-22T00:51:59;100747.28;;;15.96;61.91
7264;BME280;3673;52.480;13.348;2023-03-22T00:54:26;100738.94;;;15.76;62.17
7264;BME280;3673;52.480;13.348;2023-03-22T00:56:54;100734.69;;;15.70;62.32
7264;BME280;3673;52.480;13.348;2023-03-22T00:59:21;100732.88;;;16.11;61.29
7264;BME280;3673;52.480;13.348;2023-03-22T01:01:48;100732.66;;;15.81;62.03
7264;BME280;3673;52.480;13.348;2023-03-22T01:04:14;100736.81;;;15.91;61.90
7264;BME280;3673;52.480;13.348;2023-03-22T01:06:42;100733.72;;;15.73;62.33
7264;BME280;3673;52.480;13.348;2023-03-22T01:09:11;100735.69;;;16.03;61.49
7264;BME280;3673;52.480;13.348;2023-03-22T01:11:40;100726.25;;;15.93;61.50
7264;BME280;3673;52.480;13.348;2023-03-22T01:14:08;100724.41;;;15.95;61.17
7264;BME280;3673;52.480;13.348;2023-03-22T01:16:38;100726.75;;;15.70;62.06
7264;BME280;3673;52.480;13.348;2023-03-22T01:19:07;100721.56;;;15.66;62.09
7264;BME280;3673;52.480;13.348;2023-03-22T01:21:34;100718.53;;;15.84;61.56
7264;BME280;3673;52.480;13.348;2023-03-22T01:24:01;100715.34;;;15.68;62.01
7264;BME280;3673;52.480;13.348;2023-03-22T01:26:28;100718.78;;;15.73;61.88
7264;BME280;3673;52.480;13.348;2023-03-22T01:28:54;100712.19;;;15.54;62.46
7264;BME280;3673;52.480;13.348;2023-03-22T01:31:23;100710.88;;;15.72;62.04
7264;BME280;3673;52.480;13.348;2023-03-22T01:33:49;100703.19;;;15.63;62.06
7264;BME280;3673;52.480;13.348;2023-03-22T01:36:16;100691.75;;;15.62;62.46
7264;BME280;3673;52.480;13.348;2023-03-22T01:38:43;100694.16;;;15.74;61.78
7264;BME280;3673;52.480;13.348;2023-03-22T01:41:09;100692.63;;;15.63;62.13
7264;BME280;3673;52.480;13.348;2023-03-22T01:43:36;100698.13;;;15.52;62.44
7264;BME280;3673;52.480;13.348;2023-03-22T01:46:03;100688.97;;;15.70;62.24
7264;BME280;3673;52.480;13.348;2023-03-22T01:48:33;100691.28;;;15.42;62.48
7264;BME280;3673;52.480;13.348;2023-03-22T01:51:06;100690.63;;;15.34;63.05
7264;BME280;3673;52.480;13.348;2023-03-22T01:53:38;100691.59;;;15.28;62.97
7264;BME280;3673;52.480;13.348;2023-03-22T01:56:06;100689.50;;;15.44;62.91
7264;BME280;3673;52.480;13.348;2023-03-22T01:58:35;100684.66;;;15.24;62.89
7264;BME280;3673;52.480;13.348;2023-03-22T02:01:05;100685.84;;;15.08;63.64
7264;BME280;3673;52.480;13.348;2023-03-22T02:03:44;100688.31;;;15.17;63.15
7264;BME280;3673;52.480;13.348;2023-03-22T02:06:13;100680.50;;;15.11;63.08
7264;BME280;3673;52.480;13.348;2023-03-22T02:08:39;100681.84;;;15.32;62.70
7264;BME280;3673;52.480;13.348;2023-03-22T02:11:11;100679.53;;;15.17;63.14
7264;BME280;3673;52.480;13.348;2023-03-22T02:13:57;100684.66;;;15.24;62.70
7264;BME280;3673;52.480;13.348;2023-03-22T02:16:37;100675.00;;;14.80;63.76
7264;BME280;3673;52.480;13.348;2023-03-22T02:19:35;100676.91;;;15.17;62.81
7264;BME280;3673;52.480;13.348;2023-03-22T02:22:37;100675.84;;;15.25;62.43
7264;BME280;3673;52.480;13.348;2023-03-22T02:28:22;100668.88;;;15.23;62.35
7264;BME280;3673;52.480;13.348;2023-03-22T02:31:16;100678.00;;;15.05;62.75
7264;BME280;3673;52.480;13.348;2023-03-22T02:37:38;100675.31;;;15.08;62.01
7264;BME280;3673;52.480;13.348;2023-03-22T02:40:11;100664.47;;;15.23;61.75
7264;BME280;3673;52.480;13.348;2023-03-22T02:42:49;100661.63;;;15.32;61.51
7264;BME280;3673;52.480;13.348;2023-03-22T02:45:24;100663.41;;;14.90;62.44
7264;BME280;3673;52.480;13.348;2023-03-22T02:47:57;100662.28;;;15.02;62.00
7264;BME280;3673;52.480;13.348;2023-03-22T02:50:30;100659.75;;;14.98;62.51
7264;BME280;3673;52.480;13.348;2023-03-22T02:53:03;100662.47;;;14.93;62.42
7264;BME280;3673;52.480;13.348;2023-03-22T02:55:37;100667.25;;;14.73;62.80
7264;BME280;3673;52.480;13.348;2023-03-22T02:58:10;100658.34;;;14.78;62.72
7264;BME280;3673;52.480;13.348;2023-03-22T03:00:38;100665.25;;;14.85;62.57
7264;BME280;3673;52.480;13.348;2023-03-22T03:03:10;100656.31;;;14.94;62.01
7264;BME280;3673;52.480;13.348;2023-03-22T03:05:43;100655.31;;;15.00;61.73
7264;BME280;3673;52.480;13.348;2023-03-22T03:08:13;100651.50;;;14.70;62.48
7264;BME280;3673;52.480;13.348;2023-03-22T03:10:43;100651.19;;;14.85;62.37
7264;BME280;3673;52.480;13.348;2023-03-22T03:13:12;100657.53;;;14.76;62.30
7264;BME280;3673;52.480;13.348;2023-03-22T03:15:41;100653.91;;;14.82;61.99
7264;BME280;3673;52.480;13.348;2023-03-22T03:18:22;100652.31;;;14.73;62.43
7264;BME280;3673;52.480;13.348;2023-03-22T03:21:00;100666.13;;;14.84;61.95
7264;BME280;3673;52.480;13.348;2023-03-22T03:23:41;100663.59;;;14.80;62.08
7264;BME280;3673;52.480;13.348;2023-03-22T03:26:19;100661.97;;;14.73;61.78
7264;BME280;3673;52.480;13.348;2023-03-22T03:28:51;100673.88;;;14.48;62.60
7264;BME280;3673;52.480;13.348;2023-03-22T03:31:33;100664.31;;;14.42;62.67
7264;BME280;3673;52.480;13.348;2023-03-22T03:34:12;100668.19;;;14.69;61.78
7264;BME280;3673;52.480;13.348;2023-03-22T03:36:46;100672.66;;;14.65;61.61
7264;BME280;3673;52.480;13.348;2023-03-22T03:39:16;100664.19;;;14.48;62.62
7264;BME280;3673;52.480;13.348;2023-03-22T03:41:47;100663.13;;;14.60;61.81
7264;BME280;3673;52.480;13.348;2023-03-22T03:44:16;100667.75;;;14.46;61.83
7264;BME280;3673;52.480;13.348;2023-03-22T03:46:45;100656.97;;;14.61;61.55
7264;BME280;3673;52.480;13.348;2023-03-22T03:49:13;100655.47;;;14.46;62.05
7264;BME280;3673;52.480;13.348;2023-03-22T03:51:47;100659.53;;;14.64;61.49
7264;BME280;3673;52.480;13.348;2023-03-22T03:54:15;100655.47;;;14.44;61.76
7264;BME280;3673;52.480;13.348;2023-03-22T03:56:42;100657.28;;;14.42;61.82
7264;BME280;3673;52.480;13.348;2023-03-22T03:59:10;100655.69;;;14.34;62.15
7264;BME280;3673;52.480;13.348;2023-03-22T04:01:37;100651.19;;;14.39;61.78
7264;BME280;3673;52.480;13.348;2023-03-22T04:04:05;100652.13;;;14.84;60.83
7264;BME280;3673;52.480;13.348;2023-03-22T04:06:32;100654.66;;;14.41;61.44
7264;BME280;3673;52.480;13.348;2023-03-22T04:08:59;100652.38;;;14.70;60.99
7264;BME280;3673;52.480;13.348;2023-03-22T04:11:26;100668.13;;;14.72;60.81
7264;BME280;3673;52.480;13.348;2023-03-22T04:13:53;100659.19;;;14.33;62.12
7264;BME280;3673;52.480;13.348;2023-03-22T04:16:21;100664.69;;;14.19;62.27
7264;BME280;3673;52.480;13.348;2023-03-22T04:18:49;100657.22;;;14.47;61.97
7264;BME280;3673;52.480;13.348;2023-03-22T04:21:16;100663.13;;;14.60;60.92
7264;BME280;3673;52.480;13.348;2023-03-22T04:23:44;100663.06;;;14.61;61.01
7264;BME280;3673;52.480;13.348;2023-03-22T04:26:11;100662.53;;;14.42;61.27
7264;BME280;3673;52.480;13.348;2023-03-22T04:28:38;100665.19;;;14.88;60.24
7264;BME280;3673;52.480;13.348;2023-03-22T04:31:06;100660.94;;;14.81;59.93
7264;BME280;3673;52.480;13.348;2023-03-22T04:33:34;100655.50;;;14.90;59.16
7264;BME280;3673;52.480;13.348;2023-03-22T04:36:06;100651.38;;;14.77;59.95
7264;BME280;3673;52.480;13.348;2023-03-22T04:38:35;100649.41;;;14.87;59.71
7264;BME280;3673;52.480;13.348;2023-03-22T04:41:05;100651.59;;;15.10;59.30
7264;BME280;3673;52.480;13.348;2023-03-22T04:43:32;100648.34;;;14.97;59.14
7264;BME280;3673;52.480;13.348;2023-03-22T04:45:59;100658.13;;;14.90;59.62
7264;BME280;3673;52.480;13.348;2023-03-22T04:48:26;100646.00;;;14.82;59.82
7264;BME280;3673;52.480;13.348;2023-03-22T04:50:56;100647.94;;;14.74;59.98
7264;BME280;3673;52.480;13.348;2023-03-22T04:53:22;100651.28;;;14.33;61.03
7264;BME280;3673;52.480;13.348;2023-03-22T04:55:52;100653.16;;;14.26;61.09
7264;BME280;3673;52.480;13.348;2023-03-22T04:58:21;100644.03;;;14.47;60.66
7264;BME280;3673;52.480;13.348;2023-03-22T05:00:49;100638.25;;;14.74;60.05
7264;BME280;3673;52.480;13.348;2023-03-22T05:03:17;100643.63;;;14.68;59.65
7264;BME280;3673;52.480;13.348;2023-03-22T05:05:50;100633.63;;;14.85;59.35
7264;BME280;3673;52.480;13.348;2023-03-22T05:08:18;100621.94;;;14.56;60.01
7264;BME280;3673;52.480;13.348;2023-03-22T05:10:46;100624.00;;;14.40;60.69
7264;BME280;3673;52.480;13.348;2023-03-22T05:13:13;100613.63;;;14.28;60.92
7264;BME280;3673;52.480;13.348;2023-03-22T05:15:39;100622.25;;;14.39;60.49
7264;BME280;3673;52.480;13.348;2023-03-22T05:18:07;100620.25;;;14.53;60.24
7264;BME280;3673;52.480;13.348;2023-03-22T05:20:34;100616.25;;;14.29;61.06
7264;BME280;3673;52.480;13.348;2023-03-22T05:23:01;100619.13;;;14.65;60.08
7264;BME280;3673;52.480;13.348;2023-03-22T05:25:30;100629.75;;;14.60;59.74
7264;BME280;3673;52.480;13.348;2023-03-22T05:27:58;100629.91;;;14.53;60.43
7264;BME280;3673;52.480;13.348;2023-03-22T05:30:26;100635.28;;;14.47;60.30
7264;BME280;3673;52.480;13.348;2023-03-22T05:32:57;100632.16;;;14.72;59.74
7264;BME280;3673;52.480;13.348;2023-03-22T05:35:25;100618.09;;;14.73;59.55
7264;BME280;3673;52.480;13.348;2023-03-22T05:37:52;100622.13;;;14.89;58.80
7264;BME280;3673;52.480;13.348;2023-03-22T05:40:18;100624.28;;;14.71;59.62
7264;BME280;3673;52.480;13.348;2023-03-22T05:42:47;100621.94;;;14.56;59.93
7264;BME280;3673;52.480;13.348;2023-03-22T05:45:14;100625.78;;;14.84;59.28
7264;BME280;3673;52.480;13.348;2023-03-22T05:47:40;100624.38;;;14.65;59.67
7264;BME280;3673;52.480;13.348;2023-03-22T05:50:10;100619.88;;;14.71;59.38
7264;BME280;3673;52.480;13.348;2023-03-22T05:52:37;100613.34;;;14.44;60.17
7264;BME280;3673;52.480;13.348;2023-03-22T05:55:05;100615.06;;;14.91;58.88
7264;BME280;3673;52.480;13.348;2023-03-22T05:57:32;100622.81;;;14.55;59.62
7264;BME280;3673;52.480;13.348;2023-03-22T06:00:00;100619.91;;;14.70;59.35
7264;BME280;3673;52.480;13.348;2023-03-22T06:02:28;100618.34;;;15.04;58.13
7264;BME280;3673;52.480;13.348;2023-03-22T06:04:55;100617.59;;;14.98;58.22
7264;BME280;3673;52.480;13.348;2023-03-22T06:07:22;100608.63;;;15.05;58.01
7264;BME280;3673;52.480;13.348;2023-03-22T06:09:49;100618.63;;;14.90;58.31
7264;BME280;3673;52.480;13.348;2023-03-22T06:12:17;100608.88;;;14.94;58.05
7264;BME280;3673;52.480;13.348;2023-03-22T06:14:47;100616.06;;;14.86;58.54
7264;BME280;3673;52.480;13.348;2023-03-22T06:17:15;100614.09;;;14.95;58.42
7264;BME280;3673;52.480;13.348;2023-03-22T06:19:42;100605.75;;;14.75;58.64
7264;BME280;3673;52.480;13.348;2023-03-22T06:22:09;100612.25;;;14.58;59.29
7264;BME280;3673;52.480;13.348;2023-03-22T06:24:36;100614.97;;;14.96;58.59
7264;BME280;3673;52.480;13.348;2023-03-22T06:27:08;100610.16;;;15.16;57.82
7264;BME280;3673;52.480;13.348;2023-03-22T06:29:34;100608.88;;;14.94;57.88
7264;BME280;3673;52.480;13.348;2023-03-22T06:32:02;100619.94;;;14.68;58.97
7264;BME280;3673;52.480;13.348;2023-03-22T06:34:30;100617.03;;;14.82;58.66
7264;BME280;3673;52.480;13.348;2023-03-22T06:36:57;100616.69;;;14.99;58.41
7264;BME280;3673;52.480;13.348;2023-03-22T06:39:24;100622.88;;;14.96;58.25
7264;BME280;3673;52.480;13.348;2023-03-22T06:41:51;100619.28;;;15.00;58.20
7264;BME280;3673;52.480;13.348;2023-03-22T06:44:18;100612.41;;;14.93;58.33
7264;BME280;3673;52.480;13.348;2023-03-22T06:46:47;100624.78;;;14.88;58.50
7264;BME280;3673;52.480;13.348;2023-03-22T06:49:13;100621.19;;;14.93;58.37
7264;BME280;3673;52.480;13.348;2023-03-22T06:51:42;100622.06;;;14.94;58.26
7264;BME280;3673;52.480;13.348;2023-03-22T06:54:09;100625.03;;;15.19;57.90
7264;BME280;3673;52.480;13.348;2023-03-22T06:56:37;100617.75;;;15.30;57.40
7264;BME280;3673;52.480;13.348;2023-03-22T06:59:03;100625.09;;;15.16;57.61
7264;BME280;3673;52.480;13.348;2023-03-22T07:01:30;100619.13;;;15.08;58.01
7264;BME280;3673;52.480;13.348;2023-03-22T07:03:57;100627.06;;;15.46;57.25
7264;BME280;3673;52.480;13.348;2023-03-22T07:06:24;100619.75;;;15.60;56.52
7264;BME280;3673;52.480;13.348;2023-03-22T07:08:52;100625.38;;;15.43;57.00
7264;BME280;3673;52.480;13.348;2023-03-22T07:11:19;100623.97;;;15.67;56.46
7264;BME280;3673;52.480;13.348;2023-03-22T07:13:46;100633.22;;;15.45;57.10
7264;BME280;3673;52.480;13.348;2023-03-22T07:16:13;100621.72;;;15.51;56.95
7264;BME280;3673;52.480;13.348;2023-03-22T07:18:40;100621.59;;;15.55;56.83
7264;BME280;3673;52.480;13.348;2023-03-22T07:21:07;100632.22;;;15.52;56.99
7264;BME280;3673;52.480;13.348;2023-03-22T07:23:34;100624.09;;;15.61;56.67
7264;BME280;3673;52.480;13.348;2023-03-22T07:26:02;100622.72;;;15.43;57.23
7264;BME280;3673;52.480;13.348;2023-03-22T07:28:29;100619.25;;;15.41;57.27
7264;BME280;3673;52.480;13.348;2023-03-22T07:31:00;100630.34;;;15.17;57.62
7264;BME280;3673;52.480;13.348;2023-03-22T07:33:27;100622.06;;;15.72;56.47
7264;BME280;3673;52.480;13.348;2023-03-22T07:35:53;100617.91;;;15.62;56.73
7264;BME280;3673;52.480;13.348;2023-03-22T07:38:20;100622.44;;;15.57;56.67
7264;BME280;3673;52.480;13.348;2023-03-22T07:40:47;100612.56;;;15.67;56.73
7264;BME280;3673;52.480;13.348;2023-03-22T07:43:16;100610.81;;;15.66;56.34
7264;BME280;3673;52.480;13.348;2023-03-22T07:45:43;100608.41;;;15.57;56.94
7264;BME280;3673;52.480;13.348;2023-03-22T07:48:09;100606.84;;;15.46;56.87
7264;BME280;3673;52.480;13.348;2023-03-22T07:50:36;100597.63;;;15.66;56.70
7264;BME280;3673;52.480;13.348;2023-03-22T07:53:03;100598.72;;;15.57;56.94
7264;BME280;3673;52.480;13.348;2023-03-22T07:55:30;100600.81;;;16.14;55.40
7264;BME280;3673;52.480;13.348;2023-03-22T07:57:57;100600.75;;;16.17;55.75
7264;BME280;3673;52.480;13.348;2023-03-22T08:00:25;100598.19;;;15.78;55.98
7264;BME280;3673;52.480;13.348;2023-03-22T08:02:52;100585.88;;;15.79;56.19
7264;BME280;3673;52.480;13.348;2023-03-22T08:05:19;100596.69;;;16.04;55.75
7264;BME280;3673;52.480;13.348;2023-03-22T08:07:47;100588.94;;;16.30;55.32
7264;BME280;3673;52.480;13.348;2023-03-22T08:10:14;100592.13;;;16.42;54.74
7264;BME280;3673;52.480;13.348;2023-03-22T08:12:40;100589.47;;;16.10;55.34
7264;BME280;3673;52.480;13.348;2023-03-22T08:15:09;100587.13;;;16.32;55.09
7264;BME280;3673;52.480;13.348;2023-03-22T08:17:37;100591.50;;;16.33;54.57
7264;BME280;3673;52.480;13.348;2023-03-22T08:20:06;100598.22;;;16.12;54.82
7264;BME280;3673;52.480;13.348;2023-03-22T08:22:34;100594.94;;;16.03;54.94
7264;BME280;3673;52.480;13.348;2023-03-22T08:25:01;100594.13;;;16.34;54.53
7264;BME280;3673;52.480;13.348;2023-03-22T08:27:27;100592.09;;;16.44;54.16
7264;BME280;3673;52.480;13.348;2023-03-22T08:29:54;100586.88;;;16.73;53.72
7264;BME280;3673;52.480;13.348;2023-03-22T08:32:21;100590.44;;;16.72;53.51
7264;BME280;3673;52.480;13.348;2023-03-22T08:34:49;100583.28;;;16.76;53.26
7264;BME280;3673;52.480;13.348;2023-03-22T08:37:17;100575.00;;;16.88;53.27
7264;BME280;3673;52.480;13.348;2023-03-22T08:39:44;100575.19;;;17.39;52.09
7264;BME280;3673;52.480;13.348;2023-03-22T08:42:11;100571.63;;;17.12;52.21
7264;BME280;3673;52.480;13.348;2023-03-22T08:44:38;100568.06;;;17.13;52.25
7264;BME280;3673;52.480;13.348;2023-03-22T08:47:05;100569.06;;;17.09;52.36
7264;BME280;3673;52.480;13.348;2023-03-22T08:49:32;100567.59;;;17.28;52.04
7264;BME280;3673;52.480;13.348;2023-03-22T08:52:00;100564.16;;;17.25;52.20
7264;BME280;3673;52.480;13.348;2023-03-22T08:54:27;100558.56;;;17.08;52.43
7264;BME280;3673;52.480;13.348;2023-03-22T08:56:57;100559.06;;;17.20;52.24
7264;BME280;3673;52.480;13.348;2023-03-22T08:59:25;100556.88;;;17.33;52.35
7264;BME280;3673;52.480;13.348;2023-03-22T09:01:52;100543.00;;;17.26;52.00
7264;BME280;3673;52.480;13.348;2023-03-22T09:04:19;100548.66;;;17.14;52.40
7264;BME280;3673;52.480;13.348;2023-03-22T09:06:45;100545.97;;;17.71;51.24
7264;BME280;3673;52.480;13.348;2023-03-22T09:09:13;100548.31;;;17.52;51.37
7264;BME280;3673;52.480;13.348;2023-03-22T09:11:40;100539.59;;;17.49;51.56
7264;BME280;3673;52.480;13.348;2023-03-22T09:14:07;100536.78;;;17.27;52.12
7264;BME280;3673;52.480;13.348;2023-03-22T09:16:34;100528.56;;;17.64;51.12
7264;BME280;3673;52.480;13.348;2023-03-22T09:19:01;100524.28;;;17.86;50.44
7264;BME280;3673;52.480;13.348;2023-03-22T09:21:29;100520.53;;;17.92;50.37
7264;BME280;3673;52.480;13.348;2023-03-22T09:23:55;100525.59;;;18.24;50.04
7264;BME280;3673;52.480;13.348;2023-03-22T09:26:24;100527.44;;;18.70;49.03
7264;BME280;3673;52.480;13.348;2023-03-22T09:28:51;100519.59;;;18.90;48.63
7264;BME280;3673;52.480;13.348;2023-03-22T09:31:18;100513.09;;;19.21;47.78
7264;BME280;3673;52.480;13.348;2023-03-22T09:33:45;100516.94;;;19.57;46.76
7264;BME280;3673;52.480;13.348;2023-03-22T09:36:12;100525.13;;;19.73;46.43
7264;BME280;3673;52.480;13.348;2023-03-22T09:38:39;100535.81;;;20.12;45.63
7264;BME280;3673;52.480;13.348;2023-03-22T09:41:12;100520.28;;;19.82;45.92
7264;BME280;3673;52.480;13.348;2023-03-22T09:43:43;100526.66;;;20.19;44.54
7264;BME280;3673;52.480;13.348;2023-03-22T09:46:14;100528.19;;;19.84;45.28
7264;BME280;3673;52.480;13.348;2023-03-22T09:48:45;100518.69;;;19.78;45.24
7264;BME280;3673;52.480;13.348;2023-03-22T09:51:29;100523.34;;;19.51;45.55
7264;BME280;3673;52.480;13.348;2023-03-22T09:53:59;100525.38;;;19.45;45.97
7264;BME280;3673;52.480;13.348;2023-03-22T09:56:28;100517.00;;;19.56;45.09
7264;BME280;3673;52.480;13.348;2023-03-22T09:59:04;100515.63;;;19.67;45.13
7264;BME280;3673;52.480;13.348;2023-03-22T10:01:40;100506.28;;;20.19;43.89
7264;BME280;3673;52.480;13.348;2023-03-22T10:04:42;100509.66;;;21.00;42.26
7264;BME280;3673;52.480;13.348;2023-03-22T10:07:23;100511.59;;;21.16;41.82
7264;BME280;3673;52.480;13.348;2023-03-22T10:10:01;100512.47;;;21.52;40.88
7264;BME280;3673;52.480;13.348;2023-03-22T10:12:36;100502.38;;;21.04;41.83
7264;BME280;3673;52.480;13.348;2023-03-22T10:15:13;100502.97;;;20.73;42.60
7264;BME280;3673;52.480;13.348;2023-03-22T10:17:45;100493.56;;;20.27;43.50
7264;BME280;3673;52.480;13.348;2023-03-22T10:20:26;100504.53;;;20.18;43.65
7264;BME280;3673;52.480;13.348;2023-03-22T10:22:58;100492.09;;;20.40;43.36
7264;BME280;3673;52.480;13.348;2023-03-22T10:25:33;100494.66;;;20.22;43.70
7264;BME280;3673;52.480;13.348;2023-03-22T10:28:01;100486.78;;;20.59;42.98
7264;BME280;3673;52.480;13.348;2023-03-22T10:30:35;100478.81;;;20.78;43.02
7264;BME280;3673;52.480;13.348;2023-03-22T10:33:04;100466.50;;;20.75;42.82
7264;BME280;3673;52.480;13.348;2023-03-22T10:35:38;100471.94;;;21.28;41.96
7264;BME280;3673;52.480;13.348;2023-03-22T10:38:06;100466.75;;;21.61;40.80
7264;BME280;3673;52.480;13.348;2023-03-22T10:40:39;100466.22;;;22.39;38.71
7264;BME280;3673;52.480;13.348;2023-03-22T10:43:16;100460.66;;;22.43;38.38
7264;BME280;3673;52.480;13.348;2023-03-22T10:45:47;100449.66;;;22.17;39.13
7264;BME280;3673;52.480;13.348;2023-03-22T10:48:25;100435.25;;;22.03;38.84
7264;BME280;3673;52.480;13.348;2023-03-22T10:50:54;100441.44;;;21.87;39.28
7264;BME280;3673;52.480;13.348;2023-03-22T10:53:29;100432.59;;;22.36;38.88
7264;BME280;3673;52.480;13.348;2023-03-22T10:55:58;100430.16;;;21.82;39.68
7264;BME280;3673;52.480;13.348;2023-03-22T10:58:29;100442.69;;;21.45;40.34
7264;BME280;3673;52.480;13.348;2023-03-22T11:01:03;100426.31;;;21.19;40.72
7264;BME280;3673;52.480;13.348;2023-03-22T11:03:37;100433.69;;;20.58;41.88
7264;BME280;3673;52.480;13.348;2023-03-22T11:06:08;100430.94;;;20.96;40.63
7264;BME280;3673;52.480;13.348;2023-03-22T11:08:42;100433.91;;;21.26;40.22
7264;BME280;3673;52.480;13.348;2023-03-22T11:11:20;100436.75;;;20.86;40.71
7264;BME280;3673;52.480;13.348;2023-03-22T11:13:54;100427.81;;;21.24;40.32
7264;BME280;3673;52.480;13.348;2023-03-22T11:16:23;100417.88;;;21.09;40.69
7264;BME280;3673;52.480;13.348;2023-03-22T11:18:50;100419.28;;;22.03;38.78
7264;BME280;3673;52.480;13.348;2023-03-22T11:21:18;100414.81;;;22.04;37.92
7264;BME280;3673;52.480;13.348;2023-03-22T11:23:56;100427.34;;;22.02;37.72
7264;BME280;3673;52.480;13.348;2023-03-22T11:26:29;100432.72;;;20.96;39.43
7264;BME280;3673;52.480;13.348;2023-03-22T11:29:04;100430.78;;;20.99;39.30
7264;BME280;3673;52.480;13.348;2023-03-22T11:34:28;100415.63;;;21.01;38.97
7264;BME280;3673;52.480;13.348;2023-03-22T11:36:58;100418.19;;;21.03;38.58
7264;BME280;3673;52.480;13.348;2023-03-22T11:39:27;100415.13;;;20.93;38.58
7264;BME280;3673;52.480;13.348;2023-03-22T11:41:57;100425.56;;;20.98;38.32
7264;BME280;3673;52.480;13.348;2023-03-22T11:44:30;100415.69;;;21.53;37.51
7264;BME280;3673;52.480;13.348;2023-03-22T11:47:01;100420.44;;;21.29;37.87
7264;BME280;3673;52.480;13.348;2023-03-22T11:49:39;100405.25;;;22.00;37.07
7264;BME280;3673;52.480;13.348;2023-03-22T11:52:14;100406.78;;;21.71;37.29
7264;BME280;3673;52.480;13.348;2023-03-22T11:54:43;100396.94;;;22.86;35.38
7264;BME280;3673;52.480;13.348;2023-03-22T11:57:15;100393.16;;;24.23;33.34
7264;BME280;3673;52.480;13.348;2023-03-22T11:59:54;100387.53;;;24.14;33.07
7264;BME280;3673;52.480;13.348;2023-03-22T12:02:25;100396.97;;;24.33;32.60
7264;BME280;3673;52.480;13.348;2023-03-22T12:04:59;100386.63;;;24.96;32.16
7264;BME280;3673;52.480;13.348;2023-03-22T12:07:29;100382.56;;;24.63;32.11
7264;BME280;3673;52.480;13.348;2023-03-22T12:10:03;100382.56;;;24.22;32.74
7264;BME280;3673;52.480;13.348;2023-03-22T12:12:37;100389.88;;;24.32;32.54
7264;BME280;3673;52.480;13.348;2023-03-22T12:15:13;100381.38;;;24.40;32.19
7264;BME280;3673;52.480;13.348;2023-03-22T12:17:47;100379.94;;;23.92;33.26
7264;BME280;3673;52.480;13.348;2023-03-22T12:20:31;100373.22;;;25.23;30.65
7264;BME280;3673;52.480;13.348;2023-03-22T12:23:01;100368.84;;;26.25;29.21
7264;BME280;3673;52.480;13.348;2023-03-22T12:25:31;100367.63;;;26.16;29.33
7264;BME280;3673;52.480;13.348;2023-03-22T12:28:03;100369.06;;;25.58;30.11
7264;BME280;3673;52.480;13.348;2023-03-22T12:30:38;100356.34;;;25.48;30.12
7264;BME280;3673;52.480;13.348;2023-03-22T12:33:11;100352.97;;;25.19;31.06
7264;BME280;3673;52.480;13.348;2023-03-22T12:35:44;100350.66;;;24.74;31.41
7264;BME280;3673;52.480;13.348;2023-03-22T12:38:25;100349.47;;;23.66;33.17
7264;BME280;3673;52.480;13.348;2023-03-22T12:40:55;100346.13;;;24.47;32.36
7264;BME280;3673;52.480;13.348;2023-03-22T12:43:39;100335.50;;;25.14;30.92
7264;BME280;3673;52.480;13.348;2023-03-22T12:46:14;100331.63;;;25.05;31.17
7264;BME280;3673;52.480;13.348;2023-03-22T12:48:46;100316.72;;;25.66;29.95
7264;BME280;3673;52.480;13.348;2023-03-22T12:51:16;100317.81;;;25.88;29.57
7264;BME280;3673;52.480;13.348;2023-03-22T12:53:46;100311.47;;;26.75;28.17
7264;BME280;3673;52.480;13.348;2023-03-22T12:56:16;100323.50;;;25.58;29.63
7264;BME280;3673;52.480;13.348;2023-03-22T12:58:47;100316.31;;;25.72;29.68
7264;BME280;3673;52.480;13.348;2023-03-22T13:01:23;100319.16;;;26.79;27.43
7264;BME280;3673;52.480;13.348;2023-03-22T13:03:54;100309.22;;;27.16;27.08
7264;BME280;3673;52.480;13.348;2023-03-22T13:06:33;100314.91;;;27.35;26.90
7264;BME280;3673;52.480;13.348;2023-03-22T13:09:33;100320.94;;;26.68;27.94
7264;BME280;3673;52.480;13.348;2023-03-22T13:12:31;100308.31;;;27.39;26.91
7264;BME280;3673;52.480;13.348;2023-03-22T13:15:02;100310.34;;;27.48;26.74
7264;BME280;3673;52.480;13.348;2023-03-22T13:17:40;100309.38;;;27.60;26.43
7264;BME280;3673;52.480;13.348;2023-03-22T13:20:27;100321.50;;;26.60;27.43
7264;BME280;3673;52.480;13.348;2023-03-22T13:23:10;100312.50;;;25.99;28.33
7264;BME280;3673;52.480;13.348;2023-03-22T13:26:03;100323.88;;;25.40;29.13